createdAt,value
2019-01-21T00:00:21.444Z,-3.75
2019-01-21T00:01:21.458Z,-3.77
2019-01-21T00:02:21.425Z,-3.72
2019-01-21T00:03:21.451Z,-3.72
2019-01-21T00:04:21.410Z,-3.69
2019-01-21T00:05:21.394Z,-3.70
2019-01-21T00:06:21.396Z,-3.72
2019-01-21T00:07:21.371Z,-3.70
2019-01-21T00:08:21.371Z,-3.75
2019-01-21T00:09:21.585Z,-3.70
2019-01-21T00:10:21.365Z,-3.77
2019-01-21T00:11:21.355Z,-3.74
2019-01-21T00:12:21.329Z,-3.77
2019-01-21T00:13:21.329Z,-3.80
2019-01-21T00:14:21.328Z,-3.70
2019-01-21T00:15:21.509Z,-3.77
2019-01-21T00:16:21.507Z,-3.80
2019-01-21T00:17:22.416Z,-3.80
2019-01-21T00:18:21.299Z,-3.82
2019-01-21T00:19:21.278Z,-3.75
2019-01-21T00:20:21.261Z,-3.74
2019-01-21T00:21:21.252Z,-3.77
2019-01-21T00:22:21.244Z,-3.72
2019-01-21T00:23:21.243Z,-3.66
2019-01-21T00:24:21.215Z,-3.86
2019-01-21T00:25:21.222Z,-3.78
2019-01-21T00:26:21.210Z,-3.80
2019-01-21T00:27:21.198Z,-3.91
2019-01-21T00:28:21.392Z,-3.86
2019-01-21T00:29:21.185Z,-3.92
2019-01-21T00:30:21.369Z,-3.86
2019-01-21T00:31:21.175Z,-3.82
2019-01-21T00:32:21.155Z,-3.78
2019-01-21T00:33:21.354Z,-3.80
2019-01-21T00:34:21.140Z,-3.86
2019-01-21T00:35:21.119Z,-3.88
2019-01-21T00:36:21.109Z,-3.93
2019-01-21T00:37:21.107Z,-4.09
2019-01-21T00:38:21.092Z,-4.14
2019-01-21T00:39:21.298Z,-4.14
2019-01-21T00:40:21.076Z,-4.13
2019-01-21T00:41:21.068Z,-4.17
2019-01-21T00:42:21.062Z,-4.16
2019-01-21T00:43:21.042Z,-4.21
2019-01-21T00:44:21.041Z,-4.27
2019-01-21T00:45:21.039Z,-4.22
2019-01-21T00:46:21.026Z,-4.30
2019-01-21T00:47:21.016Z,-4.28
2019-01-21T00:48:21.208Z,-4.22
2019-01-21T00:49:20.993Z,-4.28
2019-01-21T00:50:21.010Z,-4.21
2019-01-21T00:51:20.973Z,-4.16
2019-01-21T00:52:20.991Z,-4.17
2019-01-21T00:53:21.160Z,-4.07
2019-01-21T00:54:21.166Z,-4.16
2019-01-21T00:55:20.940Z,-4.03
2019-01-21T00:56:20.940Z,-3.98
2019-01-21T00:57:20.919Z,-3.95
2019-01-21T00:58:20.905Z,-3.98
2019-01-21T00:59:20.908Z,-3.96
2019-01-21T01:00:20.889Z,-3.92
2019-01-21T01:01:20.881Z,-4.03
2019-01-21T01:02:21.080Z,-4.07
2019-01-21T01:03:20.872Z,-4.06
2019-01-21T01:04:20.870Z,-4.09
2019-01-21T01:05:20.844Z,-4.04
2019-01-21T01:06:20.838Z,-4.03
2019-01-21T01:07:20.848Z,-3.96
2019-01-21T01:08:20.810Z,-3.86
2019-01-21T01:09:20.829Z,-3.89
2019-01-21T01:10:20.790Z,-3.95
2019-01-21T01:11:20.800Z,-3.91
2019-01-21T01:12:20.794Z,-3.91
2019-01-21T01:13:20.773Z,-3.91
2019-01-21T01:14:20.760Z,-3.89
2019-01-21T01:15:20.747Z,-3.86
2019-01-21T01:16:20.750Z,-3.95
2019-01-21T01:17:20.935Z,-4.03
2019-01-21T01:18:20.728Z,-4.02
2019-01-21T01:19:20.727Z,-4.07
2019-01-21T01:20:20.734Z,-3.99
2019-01-21T01:21:20.695Z,-4.06
2019-01-21T01:22:20.707Z,-4.12
2019-01-21T01:23:20.683Z,-4.10
2019-01-21T01:24:20.694Z,-3.89
2019-01-21T01:25:20.867Z,-3.91
2019-01-21T01:26:20.659Z,-3.95
2019-01-21T01:27:20.646Z,-4.02
2019-01-21T01:28:20.625Z,-4.02
2019-01-21T01:29:20.624Z,-3.99
2019-01-21T01:30:20.608Z,-4.06
2019-01-21T01:31:20.618Z,-4.09
2019-01-21T01:32:20.796Z,-3.93
2019-01-21T01:33:20.604Z,-4.09
2019-01-21T01:34:20.573Z,-4.07
2019-01-21T01:35:20.560Z,-3.95
2019-01-21T01:36:20.561Z,-4.03
2019-01-21T01:37:20.557Z,-3.99
2019-01-21T01:38:20.538Z,-4.03
2019-01-21T01:39:20.531Z,-4.07
2019-01-21T01:40:20.731Z,-3.91
2019-01-21T01:41:20.531Z,-3.88
2019-01-21T01:42:20.509Z,-3.91
2019-01-21T01:43:20.498Z,-3.92
2019-01-21T01:44:20.485Z,-3.82
2019-01-21T01:45:20.491Z,-3.89
2019-01-21T01:46:20.457Z,-3.91
2019-01-21T01:47:20.464Z,-4.06
2019-01-21T01:48:20.641Z,-4.09
2019-01-21T01:49:20.444Z,-4.12
2019-01-21T01:50:20.432Z,-4.14
2019-01-21T01:51:20.441Z,-4.25
2019-01-21T01:52:20.413Z,-4.32
2019-01-21T01:53:20.391Z,-4.34
2019-01-21T01:54:20.582Z,-4.46
2019-01-21T01:55:20.594Z,-4.46
2019-01-21T01:56:20.579Z,-4.41
2019-01-21T01:57:20.362Z,-4.42
2019-01-21T01:58:20.549Z,-4.41
2019-01-21T01:59:20.338Z,-4.53
2019-01-21T02:00:20.341Z,-4.64
2019-01-21T02:01:20.320Z,-4.63
2019-01-21T02:02:20.515Z,-4.53
2019-01-21T02:03:20.303Z,-4.55
2019-01-21T02:04:20.285Z,-4.57
2019-01-21T02:05:20.290Z,-4.52
2019-01-21T02:06:20.269Z,-4.52
2019-01-21T02:07:20.260Z,-4.45
2019-01-21T02:08:20.249Z,-4.42
2019-01-21T02:09:20.244Z,-4.39
2019-01-21T02:10:20.237Z,-4.34
2019-01-21T02:11:20.220Z,-4.32
2019-01-21T02:12:20.411Z,-4.17
2019-01-21T02:13:20.204Z,-4.21
2019-01-21T02:14:20.200Z,-4.25
2019-01-21T02:15:20.188Z,-4.22
2019-01-21T02:16:20.171Z,-4.21
2019-01-21T02:17:20.170Z,-4.21
2019-01-21T02:18:20.359Z,-4.32
2019-01-21T02:19:20.150Z,-4.42
2019-01-21T02:20:20.144Z,-4.45
2019-01-21T02:21:20.160Z,-4.57
2019-01-21T02:22:20.117Z,-4.55
2019-01-21T02:23:20.110Z,-4.50
2019-01-21T02:24:20.097Z,-4.55
2019-01-21T02:25:20.291Z,-4.52
2019-01-21T02:26:20.094Z,-4.53
2019-01-21T02:27:20.083Z,-4.39
2019-01-21T02:28:20.055Z,-4.41
2019-01-21T02:29:20.065Z,-4.42
2019-01-21T02:30:20.044Z,-4.45
2019-01-21T02:31:20.068Z,-4.35
2019-01-21T02:32:20.032Z,-4.39
2019-01-21T02:33:20.022Z,-4.45
2019-01-21T02:34:20.206Z,-4.45
2019-01-21T02:35:20.005Z,-4.46
2019-01-21T02:36:20.017Z,-4.45
2019-01-21T02:37:19.987Z,-4.42
2019-01-21T02:38:19.987Z,-4.43
2019-01-21T02:39:19.962Z,-4.34
2019-01-21T02:40:19.946Z,-4.32
2019-01-21T02:41:19.949Z,-4.42
2019-01-21T02:42:19.932Z,-4.38
2019-01-21T02:43:19.919Z,-4.38
2019-01-21T02:44:19.932Z,-4.45
2019-01-21T02:45:19.926Z,-4.48
2019-01-21T02:46:19.902Z,-4.45
2019-01-21T02:47:19.897Z,-4.46
2019-01-21T02:48:19.896Z,-4.41
2019-01-21T02:49:19.875Z,-4.39
2019-01-21T02:50:20.068Z,-4.28
2019-01-21T02:51:19.836Z,-4.45
2019-01-21T02:52:19.848Z,-4.38
2019-01-21T02:53:19.831Z,-4.45
2019-01-21T02:54:19.822Z,-4.45
2019-01-21T02:55:19.814Z,-4.48
2019-01-21T02:56:19.996Z,-4.50
2019-01-21T02:57:19.797Z,-4.52
2019-01-21T02:58:19.793Z,-4.53
2019-01-21T02:59:19.795Z,-4.64
2019-01-21T03:00:19.751Z,-4.48
2019-01-21T03:01:19.951Z,-4.59
2019-01-21T03:02:19.941Z,-4.64
2019-01-21T03:03:19.746Z,-4.69
2019-01-21T03:04:19.730Z,-4.57
2019-01-21T03:05:19.711Z,-4.69
2019-01-21T03:06:19.707Z,-4.59
2019-01-21T03:07:19.696Z,-4.59
2019-01-21T03:08:19.682Z,-4.61
2019-01-21T03:09:19.676Z,-4.63
2019-01-21T03:10:19.873Z,-4.61
2019-01-21T03:11:19.652Z,-4.63
2019-01-21T03:12:19.639Z,-4.66
2019-01-21T03:13:19.637Z,-4.63
2019-01-21T03:14:19.622Z,-4.60
2019-01-21T03:15:19.612Z,-4.52
2019-01-21T03:16:19.600Z,-4.55
2019-01-21T03:17:19.794Z,-4.57
2019-01-21T03:18:19.597Z,-4.61
2019-01-21T03:19:19.784Z,-4.52
2019-01-21T03:20:19.566Z,-4.61
2019-01-21T03:21:19.780Z,-4.70
2019-01-21T03:22:19.559Z,-4.61
2019-01-21T03:23:19.532Z,-4.59
2019-01-21T03:24:19.735Z,-4.64
2019-01-21T03:25:19.522Z,-4.61
2019-01-21T03:26:19.514Z,-4.55
2019-01-21T03:27:19.506Z,-4.63
2019-01-21T03:28:19.491Z,-4.63
2019-01-21T03:29:19.487Z,-4.55
2019-01-21T03:30:19.468Z,-4.60
2019-01-21T03:31:19.467Z,-4.61
2019-01-21T03:32:19.461Z,-4.57
2019-01-21T03:33:19.438Z,-4.60
2019-01-21T03:34:19.444Z,-4.60
2019-01-21T03:35:19.453Z,-4.57
2019-01-21T03:36:19.567Z,-4.59
2019-01-21T03:37:19.414Z,-4.57
2019-01-21T03:38:19.393Z,-4.64
2019-01-21T03:39:19.380Z,-4.79
2019-01-21T03:40:19.586Z,-4.73
2019-01-21T03:41:19.376Z,-4.82
2019-01-21T03:42:19.370Z,-4.88
2019-01-21T03:43:19.548Z,-4.89
2019-01-21T03:44:19.351Z,-4.84
2019-01-21T03:45:19.529Z,-4.82
2019-01-21T03:46:19.325Z,-4.84
2019-01-21T03:47:19.306Z,-4.77
2019-01-21T03:48:19.298Z,-4.73
2019-01-21T03:49:19.299Z,-4.64
2019-01-21T03:50:19.285Z,-4.70
2019-01-21T03:51:19.280Z,-4.61
2019-01-21T03:52:19.263Z,-4.71
2019-01-21T03:53:19.468Z,-4.70
2019-01-21T03:54:19.454Z,-4.67
2019-01-21T03:55:19.226Z,-4.50
2019-01-21T03:56:19.247Z,-4.57
2019-01-21T03:57:19.225Z,-4.48
2019-01-21T03:58:19.213Z,-4.60
2019-01-21T03:59:19.202Z,-4.61
2019-01-21T04:00:19.179Z,-4.59
2019-01-21T04:01:19.182Z,-4.69
2019-01-21T04:02:19.171Z,-4.53
2019-01-21T04:03:19.149Z,-4.60
2019-01-21T04:04:19.146Z,-4.64
2019-01-21T04:05:19.142Z,-4.49
2019-01-21T04:06:19.140Z,-4.43
2019-01-21T04:07:19.110Z,-4.45
2019-01-21T04:08:19.132Z,-4.45
2019-01-21T04:09:19.098Z,-4.45
2019-01-21T04:10:19.096Z,-4.48
2019-01-21T04:11:19.105Z,-4.52
2019-01-21T04:12:19.071Z,-4.61
2019-01-21T04:13:19.058Z,-4.63
2019-01-21T04:14:19.247Z,-4.63
2019-01-21T04:15:20.375Z,-4.61
2019-01-21T04:16:19.227Z,-4.63
2019-01-21T04:17:19.028Z,-4.57
2019-01-21T04:18:24.467Z,-4.57
2019-01-21T04:19:19.007Z,-4.66
2019-01-21T04:20:18.999Z,-4.71
2019-01-21T04:21:19.200Z,-4.64
2019-01-21T04:22:19.002Z,-4.60
2019-01-21T04:23:18.975Z,-4.70
2019-01-21T04:24:18.960Z,-4.55
2019-01-21T04:25:19.172Z,-4.60
2019-01-21T04:26:19.146Z,-4.59
2019-01-21T04:27:18.934Z,-4.59
2019-01-21T04:28:18.938Z,-4.70
2019-01-21T04:29:18.923Z,-4.77
2019-01-21T04:30:18.902Z,-4.79
2019-01-21T04:31:18.901Z,-4.78
2019-01-21T04:32:19.090Z,-4.84
2019-01-21T04:33:18.881Z,-4.82
2019-01-21T04:34:18.852Z,-4.85
2019-01-21T04:35:18.842Z,-4.91
2019-01-21T04:36:19.038Z,-5.03
2019-01-21T04:37:18.822Z,-4.99
2019-01-21T04:38:18.816Z,-5.09
2019-01-21T04:39:18.810Z,-5.13
2019-01-21T04:40:18.805Z,-5.19
2019-01-21T04:41:18.785Z,-5.13
2019-01-21T04:42:18.783Z,-5.24
2019-01-21T04:43:18.768Z,-5.13
2019-01-21T04:44:18.771Z,-5.27
2019-01-21T04:45:18.951Z,-5.17
2019-01-21T04:46:19.223Z,-5.17
2019-01-21T04:47:18.726Z,-5.14
2019-01-21T04:48:18.921Z,-5.14
2019-01-21T04:49:18.705Z,-5.14
2019-01-21T04:50:18.703Z,-5.14
2019-01-21T04:51:18.687Z,-5.09
2019-01-21T04:52:18.879Z,-5.09
2019-01-21T04:53:18.673Z,-4.98
2019-01-21T04:54:18.685Z,-4.98
2019-01-21T04:55:18.651Z,-4.91
2019-01-21T04:56:18.644Z,-4.92
2019-01-21T04:57:18.636Z,-4.87
2019-01-21T04:58:18.835Z,-4.87
2019-01-21T04:59:18.606Z,-4.88
2019-01-21T05:00:18.802Z,-4.85
2019-01-21T05:01:18.598Z,-4.81
2019-01-21T05:02:18.585Z,-4.85
2019-01-21T05:03:18.576Z,-4.79
2019-01-21T05:04:18.571Z,-4.77
2019-01-21T05:05:18.768Z,-4.71
2019-01-21T05:06:18.553Z,-4.70
2019-01-21T05:07:18.560Z,-4.61
2019-01-21T05:08:18.526Z,-4.70
2019-01-21T05:09:18.527Z,-4.57
2019-01-21T05:10:18.528Z,-4.69
2019-01-21T05:11:18.504Z,-4.73
2019-01-21T05:12:18.510Z,-4.73
2019-01-21T05:13:18.498Z,-4.84
2019-01-21T05:14:18.466Z,-4.85
2019-01-21T05:15:18.488Z,-4.78
2019-01-21T05:16:18.447Z,-4.78
2019-01-21T05:17:18.437Z,-4.78
2019-01-21T05:18:18.422Z,-4.85
2019-01-21T05:19:18.418Z,-4.85
2019-01-21T05:20:18.414Z,-4.91
2019-01-21T05:21:18.413Z,-4.95
2019-01-21T05:22:18.382Z,-5.00
2019-01-21T05:23:18.370Z,-5.03
2019-01-21T05:24:18.379Z,-5.09
2019-01-21T05:25:18.356Z,-5.02
2019-01-21T05:26:18.346Z,-5.03
2019-01-21T05:27:18.331Z,-5.02
2019-01-21T05:28:18.330Z,-5.02
2019-01-21T05:29:18.324Z,-4.95
2019-01-21T05:30:18.313Z,-4.95
2019-01-21T05:31:18.305Z,-5.00
2019-01-21T05:32:18.292Z,-4.96
2019-01-21T05:33:18.478Z,-4.99
2019-01-21T05:34:18.273Z,-5.02
2019-01-21T05:35:18.496Z,-5.10
2019-01-21T05:36:18.253Z,-5.21
2019-01-21T05:37:18.242Z,-5.39
2019-01-21T05:38:18.434Z,-5.39
2019-01-21T05:39:18.219Z,-5.39
2019-01-21T05:40:18.216Z,-5.42
2019-01-21T05:41:18.214Z,-5.29
2019-01-21T05:42:18.186Z,-5.28
2019-01-21T05:43:18.178Z,-5.43
2019-01-21T05:44:18.185Z,-5.45
2019-01-21T05:45:18.165Z,-5.40
2019-01-21T05:46:18.154Z,-5.49
2019-01-21T05:47:18.149Z,-5.54
2019-01-21T05:48:18.132Z,-5.53
2019-01-21T05:49:18.134Z,-5.61
2019-01-21T05:50:18.319Z,-5.51
2019-01-21T05:51:18.195Z,-5.51
2019-01-21T05:52:18.294Z,-5.40
2019-01-21T05:53:18.082Z,-5.36
2019-01-21T05:54:18.075Z,-5.31
2019-01-21T05:55:18.260Z,-5.36
2019-01-21T05:56:18.270Z,-5.40
2019-01-21T05:57:18.042Z,-5.36
2019-01-21T05:58:18.035Z,-5.40
2019-01-21T05:59:18.023Z,-5.49
2019-01-21T06:00:18.011Z,-5.51
2019-01-21T06:01:18.017Z,-5.47
2019-01-21T06:02:18.011Z,-5.51
2019-01-21T06:03:17.982Z,-5.53
2019-01-21T06:04:18.186Z,-5.39
2019-01-21T06:05:18.386Z,-5.39
2019-01-21T06:06:17.948Z,-5.40
2019-01-21T06:07:17.948Z,-5.36
2019-01-21T06:08:18.144Z,-5.29
2019-01-21T06:09:17.939Z,-5.45
2019-01-21T06:10:17.943Z,-5.39
2019-01-21T06:11:17.904Z,-5.40
2019-01-21T06:12:17.894Z,-5.47
2019-01-21T06:13:17.886Z,-5.47
2019-01-21T06:14:17.868Z,-5.49
2019-01-21T06:15:17.885Z,-5.49
2019-01-21T06:16:17.856Z,-5.61
2019-01-21T06:17:17.846Z,-5.66
2019-01-21T06:18:17.849Z,-5.61
2019-01-21T06:19:18.036Z,-5.60
2019-01-21T06:20:17.808Z,-5.49
2019-01-21T06:21:18.008Z,-5.51
2019-01-21T06:22:17.794Z,-5.47
2019-01-21T06:23:17.983Z,-5.36
2019-01-21T06:24:17.769Z,-5.39
2019-01-21T06:25:17.792Z,-5.39
2019-01-21T06:26:17.780Z,-5.42
2019-01-21T06:27:17.766Z,-5.39
2019-01-21T06:28:17.746Z,-5.47
2019-01-21T06:29:17.732Z,-5.45
2019-01-21T06:30:17.714Z,-5.51
2019-01-21T06:31:17.698Z,-5.49
2019-01-21T06:32:17.889Z,-5.60
2019-01-21T06:33:17.686Z,-5.61
2019-01-21T06:34:17.676Z,-5.64
2019-01-21T06:35:17.666Z,-5.60
2019-01-21T06:36:17.645Z,-5.56
2019-01-21T06:37:17.837Z,-5.58
2019-01-21T06:38:17.628Z,-5.49
2019-01-21T06:39:17.822Z,-5.54
2019-01-21T06:40:17.609Z,-5.43
2019-01-21T06:41:17.807Z,-5.39
2019-01-21T06:42:17.883Z,-5.33
2019-01-21T06:43:17.580Z,-5.42
2019-01-21T06:44:17.787Z,-5.33
2019-01-21T06:45:17.567Z,-5.29
2019-01-21T06:46:17.555Z,-5.33
2019-01-21T06:47:17.531Z,-5.36
2019-01-21T06:48:17.724Z,-5.31
2019-01-21T06:49:17.514Z,-5.19
2019-01-21T06:50:17.510Z,-5.10
2019-01-21T06:51:17.498Z,-5.18
2019-01-21T06:52:17.488Z,-5.14
2019-01-21T06:53:17.484Z,-5.13
2019-01-21T06:54:17.675Z,-5.13
2019-01-21T06:55:17.663Z,-5.08
2019-01-21T06:56:17.647Z,-5.13
2019-01-21T06:57:17.441Z,-5.09
2019-01-21T06:58:17.431Z,-5.14
2019-01-21T06:59:17.423Z,-5.13
2019-01-21T07:00:17.411Z,-5.10
2019-01-21T07:01:17.595Z,-5.17
2019-01-21T07:02:17.390Z,-5.25
2019-01-21T07:03:17.381Z,-5.25
2019-01-21T07:04:17.365Z,-5.19
2019-01-21T07:05:17.354Z,-5.24
2019-01-21T07:06:17.347Z,-5.19
2019-01-21T07:07:17.545Z,-5.18
2019-01-21T07:08:17.332Z,-5.17
2019-01-21T07:09:17.314Z,-5.21
2019-01-21T07:10:17.320Z,-5.25
2019-01-21T07:11:17.313Z,-5.22
2019-01-21T07:12:17.283Z,-5.25
2019-01-21T07:13:17.291Z,-5.21
2019-01-21T07:14:17.293Z,-5.28
2019-01-21T07:15:17.274Z,-5.21
2019-01-21T07:16:17.262Z,-5.25
2019-01-21T07:17:17.238Z,-5.25
2019-01-21T07:18:17.231Z,-5.24
2019-01-21T07:19:17.224Z,-5.38
2019-01-21T07:20:17.216Z,-5.42
2019-01-21T07:21:17.200Z,-5.39
2019-01-21T07:22:17.196Z,-5.42
2019-01-21T07:23:17.193Z,-5.35
2019-01-21T07:24:17.373Z,-5.29
2019-01-21T07:25:17.153Z,-5.21
2019-01-21T07:26:17.176Z,-5.21
2019-01-21T07:27:17.139Z,-5.21
2019-01-21T07:28:17.147Z,-5.25
2019-01-21T07:29:17.335Z,-5.28
2019-01-21T07:30:17.125Z,-5.18
2019-01-21T07:31:17.098Z,-5.24
2019-01-21T07:32:17.083Z,-5.17
2019-01-21T07:33:17.852Z,-5.24
2019-01-21T07:34:17.103Z,-5.29
2019-01-21T07:35:17.077Z,-5.35
2019-01-21T07:36:17.046Z,-5.28
2019-01-21T07:37:17.051Z,-5.40
2019-01-21T07:38:17.041Z,-5.33
2019-01-21T07:39:17.029Z,-5.28
2019-01-21T07:40:17.024Z,-5.27
2019-01-21T07:41:16.999Z,-5.27
2019-01-21T07:42:16.990Z,-5.31
2019-01-21T07:43:16.989Z,-5.40
2019-01-21T07:44:16.969Z,-5.36
2019-01-21T07:45:16.965Z,-5.35
2019-01-21T07:46:16.951Z,-5.42
2019-01-21T07:47:16.934Z,-5.31
2019-01-21T07:48:16.935Z,-5.43
2019-01-21T07:49:17.717Z,-5.31
2019-01-21T07:50:17.125Z,-5.43
2019-01-21T07:51:16.910Z,-5.31
2019-01-21T07:52:16.896Z,-5.36
2019-01-21T07:53:16.872Z,-5.39
2019-01-21T07:54:16.863Z,-5.33
2019-01-21T07:55:16.868Z,-5.31
2019-01-21T07:56:17.062Z,-5.19
2019-01-21T07:57:16.865Z,-5.22
2019-01-21T07:58:17.042Z,-5.18
2019-01-21T07:59:16.813Z,-5.17
2019-01-21T08:00:16.804Z,-5.09
2019-01-21T08:01:16.799Z,-5.05
2019-01-21T08:02:16.784Z,-5.05
2019-01-21T08:03:16.978Z,-5.08
2019-01-21T08:04:16.765Z,-5.03
2019-01-21T08:05:16.766Z,-5.05
2019-01-21T08:06:16.753Z,-5.05
2019-01-21T08:07:16.948Z,-5.02
2019-01-21T08:08:16.727Z,-5.00
2019-01-21T08:09:16.716Z,-4.99
2019-01-21T08:10:16.919Z,-4.96
2019-01-21T08:11:16.693Z,-5.00
2019-01-21T08:12:16.713Z,-4.95
2019-01-21T08:13:16.688Z,-4.91
2019-01-21T08:14:16.670Z,-4.87
2019-01-21T08:15:16.662Z,-4.87
2019-01-21T08:16:16.642Z,-4.84
2019-01-21T08:17:16.839Z,-4.77
2019-01-21T08:18:16.632Z,-4.75
2019-01-21T08:19:16.813Z,-4.64
2019-01-21T08:20:16.604Z,-4.64
2019-01-21T08:21:16.595Z,-4.69
2019-01-21T08:22:16.586Z,-4.59
2019-01-21T08:23:16.573Z,-4.57
2019-01-21T08:24:16.583Z,-4.59
2019-01-21T08:25:16.558Z,-4.53
2019-01-21T08:26:16.537Z,-4.59
2019-01-21T08:27:16.537Z,-4.49
2019-01-21T08:28:17.248Z,-4.49
2019-01-21T08:29:16.516Z,-4.42
2019-01-21T08:30:16.507Z,-4.42
2019-01-21T08:31:16.700Z,-4.42
2019-01-21T08:32:16.482Z,-4.42
2019-01-21T08:33:16.688Z,-4.31
2019-01-21T08:34:16.461Z,-4.27
2019-01-21T08:35:16.448Z,-4.27
2019-01-21T08:36:16.452Z,-4.20
2019-01-21T08:37:16.444Z,-4.22
2019-01-21T08:38:16.434Z,-4.17
2019-01-21T08:39:16.411Z,-4.06
2019-01-21T08:40:16.403Z,-4.03
2019-01-21T08:41:16.397Z,-3.99
2019-01-21T08:42:16.382Z,-3.92
2019-01-21T08:43:16.372Z,-4.02
2019-01-21T08:44:16.375Z,-3.92
2019-01-21T08:45:16.349Z,-3.89
2019-01-21T08:46:16.357Z,-3.89
2019-01-21T08:47:16.533Z,-3.89
2019-01-21T08:48:16.334Z,-3.80
2019-01-21T08:49:16.536Z,-3.78
2019-01-21T08:50:16.505Z,-3.78
2019-01-21T08:51:16.294Z,-3.77
2019-01-21T08:52:16.294Z,-3.74
2019-01-21T08:53:16.275Z,-3.69
2019-01-21T08:54:16.261Z,-3.74
2019-01-21T08:55:16.466Z,-3.67
2019-01-21T08:56:16.246Z,-3.72
2019-01-21T08:57:16.248Z,-3.63
2019-01-21T08:58:16.220Z,-3.61
2019-01-21T08:59:16.226Z,-3.63
2019-01-21T09:00:16.215Z,-3.54
2019-01-21T09:01:16.402Z,-3.48
2019-01-21T09:02:16.400Z,-3.46
2019-01-21T09:03:16.173Z,-3.46
2019-01-21T09:04:16.166Z,-3.44
2019-01-21T09:05:16.155Z,-3.41
2019-01-21T09:06:16.146Z,-3.34
2019-01-21T09:07:16.152Z,-3.27
2019-01-21T09:08:16.341Z,-3.30
2019-01-21T09:09:16.123Z,-3.23
2019-01-21T09:10:16.127Z,-3.22
2019-01-21T09:11:16.126Z,-3.10
2019-01-21T09:12:16.089Z,-3.16
2019-01-21T09:13:16.081Z,-3.17
2019-01-21T09:14:16.071Z,-3.12
2019-01-21T09:15:16.072Z,-3.09
2019-01-21T09:16:16.046Z,-3.04
2019-01-21T09:17:16.266Z,-2.95
2019-01-21T09:18:16.045Z,-2.88
2019-01-21T09:19:16.234Z,-2.95
2019-01-21T09:20:16.031Z,-2.86
2019-01-21T09:21:16.021Z,-2.88
2019-01-21T09:22:15.990Z,-2.84
2019-01-21T09:23:15.997Z,-2.80
2019-01-21T09:24:15.983Z,-2.69
2019-01-21T09:25:15.991Z,-2.66
2019-01-21T09:26:16.175Z,-2.66
2019-01-21T09:27:15.965Z,-2.63
2019-01-21T09:28:15.952Z,-2.58
2019-01-21T09:29:15.930Z,-2.48
2019-01-21T09:30:15.924Z,-2.42
2019-01-21T09:31:15.908Z,-2.40
2019-01-21T09:32:16.104Z,-2.28
2019-01-21T09:33:15.920Z,-2.23
2019-01-21T09:34:15.892Z,-2.22
2019-01-21T09:35:15.892Z,-2.23
2019-01-21T09:36:15.861Z,-2.23
2019-01-21T09:37:15.859Z,-2.16
2019-01-21T09:38:15.848Z,-2.19
2019-01-21T09:39:16.051Z,-2.16
2019-01-21T09:40:15.832Z,-2.13
2019-01-21T09:41:15.822Z,-2.10
2019-01-21T09:42:15.813Z,-2.10
2019-01-21T09:43:15.999Z,-2.01
2019-01-21T09:44:15.824Z,-2.02
2019-01-21T09:45:15.988Z,-2.00
2019-01-21T09:46:15.982Z,-1.95
2019-01-21T09:47:15.977Z,-1.89
2019-01-21T09:48:15.751Z,-1.83
2019-01-21T09:49:15.761Z,-1.84
2019-01-21T09:50:15.948Z,-1.89
2019-01-21T09:51:15.750Z,-1.76
2019-01-21T09:52:15.720Z,-1.66
2019-01-21T09:53:15.926Z,-1.66
2019-01-21T09:54:15.729Z,-1.68
2019-01-21T09:55:15.693Z,-1.65
2019-01-21T09:56:15.686Z,-1.59
2019-01-21T09:57:15.691Z,-1.61
2019-01-21T09:58:15.866Z,-1.50
2019-01-21T09:59:15.672Z,-1.48
2019-01-21T10:00:15.666Z,-1.54
2019-01-21T10:01:15.642Z,-1.50
2019-01-21T10:02:15.827Z,-1.43
2019-01-21T10:03:15.622Z,-1.38
2019-01-21T10:04:15.641Z,-1.37
2019-01-21T10:05:15.603Z,-1.35
2019-01-21T10:06:15.598Z,-1.38
2019-01-21T10:07:15.598Z,-1.26
2019-01-21T10:08:15.575Z,-1.33
2019-01-21T10:09:15.592Z,-1.30
2019-01-21T10:10:15.559Z,-1.32
2019-01-21T10:11:15.761Z,-1.19
2019-01-21T10:12:15.770Z,-1.15
2019-01-21T10:13:15.529Z,-1.15
2019-01-21T10:14:15.724Z,-1.11
2019-01-21T10:15:15.525Z,-1.17
2019-01-21T10:16:15.733Z,-1.14
2019-01-21T10:17:15.495Z,-1.14
2019-01-21T10:18:15.498Z,-1.14
2019-01-21T10:19:15.686Z,-1.14
2019-01-21T10:20:15.466Z,-1.07
2019-01-21T10:21:15.485Z,-1.08
2019-01-21T10:22:15.452Z,-1.17
2019-01-21T10:23:15.453Z,-1.09
2019-01-21T10:24:15.443Z,-1.11
2019-01-21T10:25:15.641Z,-1.11
2019-01-21T10:26:15.433Z,-1.17
2019-01-21T10:27:15.405Z,-1.11
2019-01-21T10:28:15.416Z,-1.02
2019-01-21T10:29:15.397Z,-1.07
2019-01-21T10:30:15.379Z,-1.14
2019-01-21T10:31:15.378Z,-1.12
2019-01-21T10:32:15.569Z,-1.05
2019-01-21T10:33:15.355Z,-1.02
2019-01-21T10:34:15.342Z,-1.09
2019-01-21T10:35:15.354Z,-1.05
2019-01-21T10:36:15.335Z,-0.94
2019-01-21T10:37:15.338Z,-0.89
2019-01-21T10:38:15.322Z,-0.85
2019-01-21T10:39:15.406Z,-0.90
2019-01-21T10:40:15.300Z,-0.83
2019-01-21T10:41:15.298Z,-0.86
2019-01-21T10:42:15.286Z,-0.86
2019-01-21T10:43:16.300Z,-0.72
2019-01-21T10:44:15.270Z,-0.75
2019-01-21T10:45:15.267Z,-0.62
2019-01-21T10:46:15.454Z,-0.62
2019-01-21T10:47:15.440Z,-0.53
2019-01-21T10:48:15.232Z,-0.57
2019-01-21T10:49:15.232Z,-0.53
2019-01-21T10:50:15.220Z,-0.49
2019-01-21T10:51:15.194Z,-0.44
2019-01-21T10:52:15.191Z,-0.36
2019-01-21T10:53:15.182Z,-0.35
2019-01-21T10:54:15.199Z,-0.47
2019-01-21T10:55:15.190Z,-0.39
2019-01-21T10:56:15.160Z,-0.39
2019-01-21T10:57:15.149Z,-0.41
2019-01-21T10:58:15.153Z,-0.36
2019-01-21T10:59:15.336Z,-0.41
2019-01-21T11:00:15.134Z,-0.28
2019-01-21T11:01:15.116Z,-0.29
2019-01-21T11:02:15.105Z,-0.26
2019-01-21T11:03:15.302Z,-0.31
2019-01-21T11:04:15.084Z,-0.31
2019-01-21T11:05:15.094Z,-0.29
2019-01-21T11:06:15.077Z,-0.36
2019-01-21T11:07:15.095Z,-0.32
2019-01-21T11:08:15.063Z,-0.31
2019-01-21T11:09:15.056Z,-0.41
2019-01-21T11:10:15.052Z,-0.32
2019-01-21T11:11:15.033Z,-0.31
2019-01-21T11:12:15.031Z,-0.31
2019-01-21T11:13:15.011Z,-0.25
2019-01-21T11:14:15.012Z,-0.18
2019-01-21T11:15:15.009Z,-0.10
2019-01-21T11:16:14.986Z,-0.08
2019-01-21T11:17:14.993Z,-0.10
2019-01-21T11:18:14.987Z,0.00
2019-01-21T11:19:14.958Z,0.01
2019-01-21T11:20:14.965Z,0.07
2019-01-21T11:21:14.955Z,0.01
2019-01-21T11:22:14.932Z,0.07
2019-01-21T11:23:15.127Z,0.12
2019-01-21T11:24:15.314Z,0.08
2019-01-21T11:25:14.924Z,0.10
2019-01-21T11:26:14.905Z,0.03
2019-01-21T11:27:14.900Z,0.05
2019-01-21T11:28:14.928Z,-0.02
2019-01-21T11:29:14.901Z,-0.06
2019-01-21T11:30:14.875Z,0.03
2019-01-21T11:31:14.857Z,-0.06
2019-01-21T11:32:14.857Z,-0.02
2019-01-21T11:33:14.841Z,-0.07
2019-01-21T11:34:15.040Z,-0.15
2019-01-21T11:35:15.045Z,-0.15
2019-01-21T11:36:14.822Z,-0.07
2019-01-21T11:37:14.818Z,-0.08
2019-01-21T11:38:16.108Z,-0.13
2019-01-21T11:39:14.998Z,-0.07
2019-01-21T11:40:14.986Z,-0.02
2019-01-21T11:41:14.782Z,-0.17
2019-01-21T11:42:14.986Z,-0.07
2019-01-21T11:43:14.771Z,-0.14
2019-01-21T11:44:14.757Z,-0.14
2019-01-21T11:45:18.604Z,-0.13
2019-01-21T11:46:14.761Z,-0.15
2019-01-21T11:47:14.740Z,-0.14
2019-01-21T11:48:14.722Z,0.01
2019-01-21T11:49:14.723Z,0.03
2019-01-21T11:50:14.709Z,0.10
2019-01-21T11:51:14.695Z,0.07
2019-01-21T11:52:17.604Z,0.10
2019-01-21T11:53:14.683Z,0.08
2019-01-21T11:54:14.688Z,0.03
2019-01-21T11:55:14.672Z,0.10
2019-01-21T11:56:14.667Z,0.12
2019-01-21T11:57:14.657Z,0.08
2019-01-21T11:58:14.654Z,0.11
2019-01-21T11:59:14.836Z,0.04
2019-01-21T12:00:14.623Z,-0.02
2019-01-21T12:01:14.628Z,0.05
2019-01-21T12:02:14.606Z,0.01
2019-01-21T12:03:14.596Z,0.05
2019-01-21T12:04:14.586Z,0.08
2019-01-21T12:05:14.580Z,0.12
2019-01-21T12:06:14.571Z,0.08
2019-01-21T12:07:14.589Z,0.08
2019-01-21T12:08:14.559Z,0.08
2019-01-21T12:09:14.549Z,0.03
2019-01-21T12:10:14.547Z,0.00
2019-01-21T12:11:14.531Z,0.07
2019-01-21T12:12:14.529Z,-0.06
2019-01-21T12:13:14.530Z,-0.02
2019-01-21T12:14:14.515Z,-0.06
2019-01-21T12:15:14.510Z,-0.14
2019-01-21T12:16:14.502Z,-0.10
2019-01-21T12:17:14.487Z,-0.13
2019-01-21T12:18:14.481Z,-0.02
2019-01-21T12:19:14.481Z,-0.08
2019-01-21T12:20:17.126Z,-0.03
2019-01-21T12:21:14.482Z,0.00
2019-01-21T12:22:14.459Z,0.10
2019-01-21T12:23:14.455Z,0.15
2019-01-21T12:24:14.432Z,0.05
2019-01-21T12:25:14.424Z,0.10
2019-01-21T12:26:14.411Z,0.10
2019-01-21T12:27:14.407Z,0.11
2019-01-21T12:28:14.407Z,0.15
2019-01-21T12:29:14.386Z,0.08
2019-01-21T12:30:14.397Z,0.15
2019-01-21T12:31:14.377Z,0.08
2019-01-21T12:32:14.370Z,0.05
2019-01-21T12:33:14.354Z,0.07
2019-01-21T12:34:14.350Z,0.01
2019-01-21T12:35:14.337Z,0.05
2019-01-21T12:36:14.335Z,0.08
2019-01-21T12:37:14.404Z,0.05
2019-01-21T12:38:14.340Z,-0.06
2019-01-21T12:39:14.356Z,0.07
2019-01-21T12:40:14.311Z,0.04
2019-01-21T12:41:14.295Z,0.05
2019-01-21T12:42:14.289Z,0.03
2019-01-21T12:43:14.286Z,0.05
2019-01-21T12:44:14.273Z,0.07
2019-01-21T12:45:14.265Z,0.08
2019-01-21T12:46:14.251Z,0.10
2019-01-21T12:47:14.245Z,0.12
2019-01-21T12:48:14.247Z,0.12
2019-01-21T12:49:14.229Z,0.12
2019-01-21T12:50:14.218Z,0.10
2019-01-21T12:51:14.210Z,0.05
2019-01-21T12:52:14.204Z,0.07
2019-01-21T12:53:14.193Z,0.18
2019-01-21T12:54:14.188Z,0.19